Pagina principale
METAR-TAF:

METAR-TAF

Aeroporti :

Aeroporto di Bologna-Borgo Panigale

Bologna, Italia

latitudine: 44-32N, longitudine: 011-18E, altezza: 36 m

Osservazione

Il bollettino è stato emesso 27 minuti fa, alle 15:50 UTC
Vento 3 kt da nord-est, variando fra nord e est
Temperature 32°C
Umidità 38%
Pressione 1015 hPa
Visibilità 10 km o più
Poco nuvoloso ad un'altezza di 3500 ft, Cumulo congesto.
Nubi sparse ad un'altezza di 4000 ft

METAR: LIPE 181550Z 05003KT 010V090 9999 FEW035TCU SCT040 32/16 Q1015

Ora: 18:17 (16:17 UTC)

Previsione

Il bollettino è stato emesso 5 ore e 17 minuti fa, alle 11:00 UTC
Previsione valida dal 18 alle 12 UTC al 19 alle 12 UTC
Vento 5 kt da direzioni variabili
Visibilità 10 km o più
nessuna nube inferiore a 1500 m e nessun cumulonembo

TAF: LIPE 181100Z 1812/1912 VRB05KT CAVOK

Osservazioni e previsioni meteorologiche di più di 4000 aeroporti (messaggi METAR e TAF).

Le stazioni disponibili sono rappresentate dai dischi gialli e rossi sulla carta.

Puntare il mouse per vedere il nome della stazione.

Clicca sopra per visualizzare le osservazioni e previsioni meteorologiche.

Per cambiare la mappa : fare clic sui pulsanti verdi con una croce nera per ingrandire, il pulsante verde con un trattino per diminuire, o sulla freccia verde per le mappe adiacenti.


METAR-TAF: